sensor_id;sensor_type;location;lat;lon;timestamp;temperature;humidity
20487;DHT22;10402;49.012;8.370;2024-03-29T00:01:10;10.50;60.00
20487;DHT22;10402;49.012;8.370;2024-03-29T00:03:35;10.60;60.00
20487;DHT22;10402;49.012;8.370;2024-03-29T00:06:01;10.60;59.90
20487;DHT22;10402;49.012;8.370;2024-03-29T00:08:26;10.50;59.70
20487;DHT22;10402;49.012;8.370;2024-03-29T00:10:52;10.60;59.70
20487;DHT22;10402;49.012;8.370;2024-03-29T00:13:17;10.60;59.80
20487;DHT22;10402;49.012;8.370;2024-03-29T00:15:45;10.60;59.80
20487;DHT22;10402;49.012;8.370;2024-03-29T00:18:11;10.60;59.70
20487;DHT22;10402;49.012;8.370;2024-03-29T00:20:36;10.60;59.80
20487;DHT22;10402;49.012;8.370;2024-03-29T00:23:02;10.60;59.70
20487;DHT22;10402;49.012;8.370;2024-03-29T00:25:27;10.60;59.70
20487;DHT22;10402;49.012;8.370;2024-03-29T00:27:53;10.60;59.80
20487;DHT22;10402;49.012;8.370;2024-03-29T00:30:18;10.60;59.70
20487;DHT22;10402;49.012;8.370;2024-03-29T00:32:44;10.60;59.70
20487;DHT22;10402;49.012;8.370;2024-03-29T00:35:09;10.60;59.40
20487;DHT22;10402;49.012;8.370;2024-03-29T00:37:35;10.60;59.40
20487;DHT22;10402;49.012;8.370;2024-03-29T00:40:01;10.70;59.50
20487;DHT22;10402;49.012;8.370;2024-03-29T00:42:26;10.70;59.60
20487;DHT22;10402;49.012;8.370;2024-03-29T00:44:52;10.70;59.50
20487;DHT22;10402;49.012;8.370;2024-03-29T00:47:17;10.70;59.30
20487;DHT22;10402;49.012;8.370;2024-03-29T00:49:43;10.70;59.30
20487;DHT22;10402;49.012;8.370;2024-03-29T00:52:08;10.70;59.10
20487;DHT22;10402;49.012;8.370;2024-03-29T00:54:34;10.70;59.00
20487;DHT22;10402;49.012;8.370;2024-03-29T00:56:59;10.70;58.90
20487;DHT22;10402;49.012;8.370;2024-03-29T00:59:25;10.70;58.50
20487;DHT22;10402;49.012;8.370;2024-03-29T01:01:50;10.80;58.70
20487;DHT22;10402;49.012;8.370;2024-03-29T01:04:17;10.80;58.50
20487;DHT22;10402;49.012;8.370;2024-03-29T01:06:42;10.80;58.70
20487;DHT22;10402;49.012;8.370;2024-03-29T01:09:08;10.80;58.60
20487;DHT22;10402;49.012;8.370;2024-03-29T01:11:37;10.80;58.60
20487;DHT22;10402;49.012;8.370;2024-03-29T01:14:03;10.90;58.70
20487;DHT22;10402;49.012;8.370;2024-03-29T01:16:28;10.90;58.50
20487;DHT22;10402;49.012;8.370;2024-03-29T01:18:54;10.90;58.50
20487;DHT22;10402;49.012;8.370;2024-03-29T01:21:20;10.90;58.30
20487;DHT22;10402;49.012;8.370;2024-03-29T01:23:46;10.90;58.30
20487;DHT22;10402;49.012;8.370;2024-03-29T01:26:11;11.00;58.20
20487;DHT22;10402;49.012;8.370;2024-03-29T01:28:38;11.00;58.00
20487;DHT22;10402;49.012;8.370;2024-03-29T01:31:04;11.00;57.80
20487;DHT22;10402;49.012;8.370;2024-03-29T01:33:30;11.00;58.30
20487;DHT22;10402;49.012;8.370;2024-03-29T01:35:58;11.00;57.70
20487;DHT22;10402;49.012;8.370;2024-03-29T01:38:24;11.00;58.30
20487;DHT22;10402;49.012;8.370;2024-03-29T01:40:49;11.00;57.70
20487;DHT22;10402;49.012;8.370;2024-03-29T01:43:15;11.00;57.60
20487;DHT22;10402;49.012;8.370;2024-03-29T01:45:42;11.10;57.60
20487;DHT22;10402;49.012;8.370;2024-03-29T01:48:09;11.10;57.60
20487;DHT22;10402;49.012;8.370;2024-03-29T01:50:36;11.10;58.10
20487;DHT22;10402;49.012;8.370;2024-03-29T01:53:04;11.10;57.50
20487;DHT22;10402;49.012;8.370;2024-03-29T01:55:31;11.10;57.40
20487;DHT22;10402;49.012;8.370;2024-03-29T01:57:58;11.10;57.40
20487;DHT22;10402;49.012;8.370;2024-03-29T02:00:24;11.10;57.40
20487;DHT22;10402;49.012;8.370;2024-03-29T02:02:50;11.20;57.30
20487;DHT22;10402;49.012;8.370;2024-03-29T02:05:16;11.20;57.30
20487;DHT22;10402;49.012;8.370;2024-03-29T02:07:42;11.20;57.20
20487;DHT22;10402;49.012;8.370;2024-03-29T02:10:11;11.20;57.30
20487;DHT22;10402;49.012;8.370;2024-03-29T02:12:38;11.30;57.10
20487;DHT22;10402;49.012;8.370;2024-03-29T02:15:04;11.30;57.10
20487;DHT22;10402;49.012;8.370;2024-03-29T02:17:31;11.30;57.10
20487;DHT22;10402;49.012;8.370;2024-03-29T02:19:56;11.30;57.10
20487;DHT22;10402;49.012;8.370;2024-03-29T02:22:23;11.30;57.00
20487;DHT22;10402;49.012;8.370;2024-03-29T02:24:51;11.30;57.00
20487;DHT22;10402;49.012;8.370;2024-03-29T02:27:17;11.40;57.20
20487;DHT22;10402;49.012;8.370;2024-03-29T02:29:43;11.40;57.20
20487;DHT22;10402;49.012;8.370;2024-03-29T02:32:08;11.40;57.20
20487;DHT22;10402;49.012;8.370;2024-03-29T02:34:34;11.40;57.20
20487;DHT22;10402;49.012;8.370;2024-03-29T02:36:59;11.40;57.20
20487;DHT22;10402;49.012;8.370;2024-03-29T02:39:25;11.40;57.00
20487;DHT22;10402;49.012;8.370;2024-03-29T02:41:51;11.50;57.00
20487;DHT22;10402;49.012;8.370;2024-03-29T02:44:16;11.50;56.90
20487;DHT22;10402;49.012;8.370;2024-03-29T02:46:42;11.50;56.90
20487;DHT22;10402;49.012;8.370;2024-03-29T02:49:08;11.60;56.90
20487;DHT22;10402;49.012;8.370;2024-03-29T02:51:35;11.60;56.80
20487;DHT22;10402;49.012;8.370;2024-03-29T02:54:00;11.60;56.70
20487;DHT22;10402;49.012;8.370;2024-03-29T02:56:26;11.60;56.70
20487;DHT22;10402;49.012;8.370;2024-03-29T02:58:52;11.70;56.70
20487;DHT22;10402;49.012;8.370;2024-03-29T03:01:18;11.70;56.60
20487;DHT22;10402;49.012;8.370;2024-03-29T03:03:44;11.70;56.50
20487;DHT22;10402;49.012;8.370;2024-03-29T03:06:09;11.80;56.60
20487;DHT22;10402;49.012;8.370;2024-03-29T03:08:35;11.80;56.50
20487;DHT22;10402;49.012;8.370;2024-03-29T03:11:19;11.80;56.60
20487;DHT22;10402;49.012;8.370;2024-03-29T03:13:44;11.80;56.50
20487;DHT22;10402;49.012;8.370;2024-03-29T03:16:10;11.80;56.60
20487;DHT22;10402;49.012;8.370;2024-03-29T03:18:35;11.80;57.10
20487;DHT22;10402;49.012;8.370;2024-03-29T03:21:01;11.70;57.80
20487;DHT22;10402;49.012;8.370;2024-03-29T03:23:28;11.70;59.00
20487;DHT22;10402;49.012;8.370;2024-03-29T03:25:58;11.70;59.80
20487;DHT22;10402;49.012;8.370;2024-03-29T03:28:24;11.70;60.00
20487;DHT22;10402;49.012;8.370;2024-03-29T03:30:53;11.60;60.70
20487;DHT22;10402;49.012;8.370;2024-03-29T03:33:19;11.60;61.00
20487;DHT22;10402;49.012;8.370;2024-03-29T03:35:45;11.60;61.10
20487;DHT22;10402;49.012;8.370;2024-03-29T03:38:11;11.60;61.20
20487;DHT22;10402;49.012;8.370;2024-03-29T03:40:38;11.60;61.50
20487;DHT22;10402;49.012;8.370;2024-03-29T03:43:05;11.60;61.80
20487;DHT22;10402;49.012;8.370;2024-03-29T03:45:38;11.60;61.50
20487;DHT22;10402;49.012;8.370;2024-03-29T03:48:07;11.50;61.30
20487;DHT22;10402;49.012;8.370;2024-03-29T03:50:34;11.50;61.10
20487;DHT22;10402;49.012;8.370;2024-03-29T03:52:59;11.50;61.20
20487;DHT22;10402;49.012;8.370;2024-03-29T03:55:25;11.50;61.10
20487;DHT22;10402;49.012;8.370;2024-03-29T03:57:52;11.50;61.10
20487;DHT22;10402;49.012;8.370;2024-03-29T04:00:19;11.50;60.90
20487;DHT22;10402;49.012;8.370;2024-03-29T04:02:50;11.50;60.60
20487;DHT22;10402;49.012;8.370;2024-03-29T04:05:18;11.60;60.60
20487;DHT22;10402;49.012;8.370;2024-03-29T04:07:43;11.60;60.50
20487;DHT22;10402;49.012;8.370;2024-03-29T04:10:09;11.60;60.30
20487;DHT22;10402;49.012;8.370;2024-03-29T04:12:35;11.60;60.60
20487;DHT22;10402;49.012;8.370;2024-03-29T04:15:00;11.60;60.00
20487;DHT22;10402;49.012;8.370;2024-03-29T04:17:26;11.60;59.80
20487;DHT22;10402;49.012;8.370;2024-03-29T04:19:51;11.60;59.70
20487;DHT22;10402;49.012;8.370;2024-03-29T04:22:17;11.60;60.40
20487;DHT22;10402;49.012;8.370;2024-03-29T04:24:43;11.60;60.70
20487;DHT22;10402;49.012;8.370;2024-03-29T04:27:08;11.60;61.00
20487;DHT22;10402;49.012;8.370;2024-03-29T04:29:34;11.60;61.30
20487;DHT22;10402;49.012;8.370;2024-03-29T04:31:59;11.60;62.00
20487;DHT22;10402;49.012;8.370;2024-03-29T04:34:25;11.60;62.10
20487;DHT22;10402;49.012;8.370;2024-03-29T04:36:50;11.60;62.80
20487;DHT22;10402;49.012;8.370;2024-03-29T04:39:15;11.60;62.80
20487;DHT22;10402;49.012;8.370;2024-03-29T04:41:41;11.60;63.00
20487;DHT22;10402;49.012;8.370;2024-03-29T04:44:08;11.60;63.30
20487;DHT22;10402;49.012;8.370;2024-03-29T04:46:34;11.60;63.00
20487;DHT22;10402;49.012;8.370;2024-03-29T04:48:59;11.60;63.10
20487;DHT22;10402;49.012;8.370;2024-03-29T04:51:25;11.60;62.90
20487;DHT22;10402;49.012;8.370;2024-03-29T04:53:50;11.60;63.20
20487;DHT22;10402;49.012;8.370;2024-03-29T04:56:16;11.60;63.10
20487;DHT22;10402;49.012;8.370;2024-03-29T04:58:42;11.60;63.10
20487;DHT22;10402;49.012;8.370;2024-03-29T05:01:08;11.60;63.20
20487;DHT22;10402;49.012;8.370;2024-03-29T05:03:33;11.50;63.30
20487;DHT22;10402;49.012;8.370;2024-03-29T05:05:59;11.50;63.60
20487;DHT22;10402;49.012;8.370;2024-03-29T05:08:25;11.50;63.50
20487;DHT22;10402;49.012;8.370;2024-03-29T05:10:51;11.50;63.60
20487;DHT22;10402;49.012;8.370;2024-03-29T05:13:17;11.60;63.70
20487;DHT22;10402;49.012;8.370;2024-03-29T05:15:44;11.60;63.70
20487;DHT22;10402;49.012;8.370;2024-03-29T05:18:09;11.60;64.00
20487;DHT22;10402;49.012;8.370;2024-03-29T05:20:35;11.60;64.20
20487;DHT22;10402;49.012;8.370;2024-03-29T05:23:01;11.60;63.90
20487;DHT22;10402;49.012;8.370;2024-03-29T05:25:27;11.60;64.00
20487;DHT22;10402;49.012;8.370;2024-03-29T05:27:52;11.60;64.00
20487;DHT22;10402;49.012;8.370;2024-03-29T05:30:18;11.50;63.90
20487;DHT22;10402;49.012;8.370;2024-03-29T05:32:44;11.50;64.30
20487;DHT22;10402;49.012;8.370;2024-03-29T05:35:10;11.40;64.40
20487;DHT22;10402;49.012;8.370;2024-03-29T05:37:36;11.40;64.80
20487;DHT22;10402;49.012;8.370;2024-03-29T05:40:01;11.40;65.00
20487;DHT22;10402;49.012;8.370;2024-03-29T05:42:31;11.40;65.10
20487;DHT22;10402;49.012;8.370;2024-03-29T05:44:57;11.30;65.50
20487;DHT22;10402;49.012;8.370;2024-03-29T05:47:23;11.20;66.10
20487;DHT22;10402;49.012;8.370;2024-03-29T05:49:49;11.20;67.00
20487;DHT22;10402;49.012;8.370;2024-03-29T05:52:15;11.20;68.00
20487;DHT22;10402;49.012;8.370;2024-03-29T05:54:42;11.10;68.80
20487;DHT22;10402;49.012;8.370;2024-03-29T05:57:08;11.00;69.70
20487;DHT22;10402;49.012;8.370;2024-03-29T05:59:34;10.90;70.20
20487;DHT22;10402;49.012;8.370;2024-03-29T06:01:59;10.90;70.70
20487;DHT22;10402;49.012;8.370;2024-03-29T06:04:25;10.90;71.00
20487;DHT22;10402;49.012;8.370;2024-03-29T06:06:58;10.90;71.20
20487;DHT22;10402;49.012;8.370;2024-03-29T06:09:24;10.90;72.00
20487;DHT22;10402;49.012;8.370;2024-03-29T06:11:49;10.80;72.10
20487;DHT22;10402;49.012;8.370;2024-03-29T06:14:15;10.80;72.60
20487;DHT22;10402;49.012;8.370;2024-03-29T06:16:59;10.70;73.00
20487;DHT22;10402;49.012;8.370;2024-03-29T06:19:43;10.80;73.30
20487;DHT22;10402;49.012;8.370;2024-03-29T06:22:09;10.80;73.40
20487;DHT22;10402;49.012;8.370;2024-03-29T06:24:34;10.80;73.50
20487;DHT22;10402;49.012;8.370;2024-03-29T06:27:00;10.80;73.40
20487;DHT22;10402;49.012;8.370;2024-03-29T06:29:26;10.70;73.40
20487;DHT22;10402;49.012;8.370;2024-03-29T06:31:51;10.80;73.80
20487;DHT22;10402;49.012;8.370;2024-03-29T06:34:17;10.80;73.80
20487;DHT22;10402;49.012;8.370;2024-03-29T06:36:42;10.90;74.00
20487;DHT22;10402;49.012;8.370;2024-03-29T06:39:08;10.80;73.90
20487;DHT22;10402;49.012;8.370;2024-03-29T06:41:34;10.90;74.20
20487;DHT22;10402;49.012;8.370;2024-03-29T06:43:59;10.90;74.30
20487;DHT22;10402;49.012;8.370;2024-03-29T06:46:25;11.00;74.50
20487;DHT22;10402;49.012;8.370;2024-03-29T06:48:51;11.00;74.70
20487;DHT22;10402;49.012;8.370;2024-03-29T06:51:16;10.90;74.60
20487;DHT22;10402;49.012;8.370;2024-03-29T06:53:42;10.90;75.00
20487;DHT22;10402;49.012;8.370;2024-03-29T06:56:07;10.90;75.40
20487;DHT22;10402;49.012;8.370;2024-03-29T06:58:33;10.90;76.20
20487;DHT22;10402;49.012;8.370;2024-03-29T07:00:58;10.90;75.70
20487;DHT22;10402;49.012;8.370;2024-03-29T07:03:24;10.80;75.90
20487;DHT22;10402;49.012;8.370;2024-03-29T07:05:49;10.80;76.10
20487;DHT22;10402;49.012;8.370;2024-03-29T07:08:15;10.80;76.40
20487;DHT22;10402;49.012;8.370;2024-03-29T07:10:41;10.70;76.60
20487;DHT22;10402;49.012;8.370;2024-03-29T07:13:07;10.70;77.00
20487;DHT22;10402;49.012;8.370;2024-03-29T07:15:33;10.70;77.30
20487;DHT22;10402;49.012;8.370;2024-03-29T07:18:00;10.70;77.60
20487;DHT22;10402;49.012;8.370;2024-03-29T07:20:26;10.70;78.00
20487;DHT22;10402;49.012;8.370;2024-03-29T07:22:52;10.70;78.20
20487;DHT22;10402;49.012;8.370;2024-03-29T07:25:18;10.60;78.20
20487;DHT22;10402;49.012;8.370;2024-03-29T07:27:43;10.60;78.60
20487;DHT22;10402;49.012;8.370;2024-03-29T07:30:09;10.60;79.30
20487;DHT22;10402;49.012;8.370;2024-03-29T07:32:36;10.60;79.70
20487;DHT22;10402;49.012;8.370;2024-03-29T07:35:02;10.60;80.00
20487;DHT22;10402;49.012;8.370;2024-03-29T07:37:28;10.50;79.90
20487;DHT22;10402;49.012;8.370;2024-03-29T07:39:54;10.50;80.60
20487;DHT22;10402;49.012;8.370;2024-03-29T07:42:19;10.40;81.00
20487;DHT22;10402;49.012;8.370;2024-03-29T07:44:45;10.40;81.40
20487;DHT22;10402;49.012;8.370;2024-03-29T07:47:10;10.30;82.10
20487;DHT22;10402;49.012;8.370;2024-03-29T07:49:38;10.30;83.40
20487;DHT22;10402;49.012;8.370;2024-03-29T07:52:05;10.30;83.90
20487;DHT22;10402;49.012;8.370;2024-03-29T07:54:31;10.30;84.00
20487;DHT22;10402;49.012;8.370;2024-03-29T07:56:57;10.20;84.30
20487;DHT22;10402;49.012;8.370;2024-03-29T07:59:22;10.30;84.30
20487;DHT22;10402;49.012;8.370;2024-03-29T08:01:48;10.30;84.90
20487;DHT22;10402;49.012;8.370;2024-03-29T08:04:13;10.20;85.10
20487;DHT22;10402;49.012;8.370;2024-03-29T08:06:39;10.20;85.30
20487;DHT22;10402;49.012;8.370;2024-03-29T08:09:04;10.30;86.20
20487;DHT22;10402;49.012;8.370;2024-03-29T08:11:30;10.30;87.10
20487;DHT22;10402;49.012;8.370;2024-03-29T08:13:55;10.30;87.30
20487;DHT22;10402;49.012;8.370;2024-03-29T08:16:21;10.30;87.20
20487;DHT22;10402;49.012;8.370;2024-03-29T08:18:47;10.30;87.00
20487;DHT22;10402;49.012;8.370;2024-03-29T08:21:13;10.20;87.00
20487;DHT22;10402;49.012;8.370;2024-03-29T08:23:42;10.20;87.10
20487;DHT22;10402;49.012;8.370;2024-03-29T08:26:11;10.20;87.50
20487;DHT22;10402;49.012;8.370;2024-03-29T08:28:37;10.20;87.30
20487;DHT22;10402;49.012;8.370;2024-03-29T08:31:07;10.20;88.00
20487;DHT22;10402;49.012;8.370;2024-03-29T08:33:35;10.20;87.90
20487;DHT22;10402;49.012;8.370;2024-03-29T08:36:04;10.20;87.80
20487;DHT22;10402;49.012;8.370;2024-03-29T08:38:29;10.20;87.60
20487;DHT22;10402;49.012;8.370;2024-03-29T08:40:55;10.20;88.20
20487;DHT22;10402;49.012;8.370;2024-03-29T08:43:20;10.20;88.60
20487;DHT22;10402;49.012;8.370;2024-03-29T08:45:46;10.20;88.80
20487;DHT22;10402;49.012;8.370;2024-03-29T08:48:12;10.20;89.30
20487;DHT22;10402;49.012;8.370;2024-03-29T08:50:37;10.30;89.50
20487;DHT22;10402;49.012;8.370;2024-03-29T08:53:03;10.20;89.40
20487;DHT22;10402;49.012;8.370;2024-03-29T08:55:33;10.30;89.80
20487;DHT22;10402;49.012;8.370;2024-03-29T08:57:59;10.30;90.00
20487;DHT22;10402;49.012;8.370;2024-03-29T09:00:26;10.30;90.30
20487;DHT22;10402;49.012;8.370;2024-03-29T09:02:52;10.40;90.30
20487;DHT22;10402;49.012;8.370;2024-03-29T09:05:17;10.50;90.40
20487;DHT22;10402;49.012;8.370;2024-03-29T09:07:43;10.50;90.50
20487;DHT22;10402;49.012;8.370;2024-03-29T09:10:09;10.60;90.60
20487;DHT22;10402;49.012;8.370;2024-03-29T09:12:34;10.60;90.70
20487;DHT22;10402;49.012;8.370;2024-03-29T09:15:00;10.70;90.80
20487;DHT22;10402;49.012;8.370;2024-03-29T09:17:26;10.80;90.90
20487;DHT22;10402;49.012;8.370;2024-03-29T09:19:52;11.00;90.90
20487;DHT22;10402;49.012;8.370;2024-03-29T09:22:18;11.10;91.10
20487;DHT22;10402;49.012;8.370;2024-03-29T09:24:43;11.10;91.10
20487;DHT22;10402;49.012;8.370;2024-03-29T09:27:09;11.20;91.20
20487;DHT22;10402;49.012;8.370;2024-03-29T09:29:34;11.30;91.40
20487;DHT22;10402;49.012;8.370;2024-03-29T09:32:00;11.40;91.40
20487;DHT22;10402;49.012;8.370;2024-03-29T09:34:30;11.40;91.40
20487;DHT22;10402;49.012;8.370;2024-03-29T09:36:56;11.50;91.60
20487;DHT22;10402;49.012;8.370;2024-03-29T09:39:22;11.50;91.70
20487;DHT22;10402;49.012;8.370;2024-03-29T09:41:49;11.60;91.70
20487;DHT22;10402;49.012;8.370;2024-03-29T09:44:15;11.70;91.80
20487;DHT22;10402;49.012;8.370;2024-03-29T09:46:42;11.80;91.90
20487;DHT22;10402;49.012;8.370;2024-03-29T09:49:10;11.80;92.00
20487;DHT22;10402;49.012;8.370;2024-03-29T09:51:40;11.90;92.10
20487;DHT22;10402;49.012;8.370;2024-03-29T09:54:09;12.00;92.20
20487;DHT22;10402;49.012;8.370;2024-03-29T09:56:38;12.00;92.30
20487;DHT22;10402;49.012;8.370;2024-03-29T09:59:03;12.00;92.40
20487;DHT22;10402;49.012;8.370;2024-03-29T10:01:30;12.00;92.50
20487;DHT22;10402;49.012;8.370;2024-03-29T10:03:56;12.10;92.60
20487;DHT22;10402;49.012;8.370;2024-03-29T10:06:24;12.10;92.70
20487;DHT22;10402;49.012;8.370;2024-03-29T10:08:50;12.20;92.80
20487;DHT22;10402;49.012;8.370;2024-03-29T10:11:16;12.20;93.00
20487;DHT22;10402;49.012;8.370;2024-03-29T10:13:43;12.30;93.10
20487;DHT22;10402;49.012;8.370;2024-03-29T10:16:11;12.30;93.20
20487;DHT22;10402;49.012;8.370;2024-03-29T10:18:40;12.30;93.20
20487;DHT22;10402;49.012;8.370;2024-03-29T10:21:07;12.40;93.40
20487;DHT22;10402;49.012;8.370;2024-03-29T10:23:34;12.40;93.50
20487;DHT22;10402;49.012;8.370;2024-03-29T10:26:01;12.50;93.60
20487;DHT22;10402;49.012;8.370;2024-03-29T10:28:32;12.50;93.80
20487;DHT22;10402;49.012;8.370;2024-03-29T10:30:58;12.50;93.80
20487;DHT22;10402;49.012;8.370;2024-03-29T10:33:27;12.50;93.80
20487;DHT22;10402;49.012;8.370;2024-03-29T10:35:54;12.50;94.10
20487;DHT22;10402;49.012;8.370;2024-03-29T10:38:21;12.60;94.20
20487;DHT22;10402;49.012;8.370;2024-03-29T10:40:48;12.60;94.20
20487;DHT22;10402;49.012;8.370;2024-03-29T10:43:14;12.70;94.40
20487;DHT22;10402;49.012;8.370;2024-03-29T10:45:42;12.70;94.30
20487;DHT22;10402;49.012;8.370;2024-03-29T10:48:09;12.70;94.40
20487;DHT22;10402;49.012;8.370;2024-03-29T10:50:36;12.80;94.50
20487;DHT22;10402;49.012;8.370;2024-03-29T10:53:02;12.80;94.50
20487;DHT22;10402;49.012;8.370;2024-03-29T10:55:35;12.80;94.60
20487;DHT22;10402;49.012;8.370;2024-03-29T10:58:01;12.90;94.80
20487;DHT22;10402;49.012;8.370;2024-03-29T11:00:31;13.00;94.80
20487;DHT22;10402;49.012;8.370;2024-03-29T11:03:23;13.00;94.90
20487;DHT22;10402;49.012;8.370;2024-03-29T11:05:54;13.10;95.00
20487;DHT22;10402;49.012;8.370;2024-03-29T11:08:26;13.10;95.00
20487;DHT22;10402;49.012;8.370;2024-03-29T11:10:54;13.20;95.10
20487;DHT22;10402;49.012;8.370;2024-03-29T11:13:36;13.20;95.30
20487;DHT22;10402;49.012;8.370;2024-03-29T11:16:03;13.30;95.30
20487;DHT22;10402;49.012;8.370;2024-03-29T11:18:29;13.40;95.40
20487;DHT22;10402;49.012;8.370;2024-03-29T11:20:58;13.40;95.40
20487;DHT22;10402;49.012;8.370;2024-03-29T11:23:26;13.40;95.40
20487;DHT22;10402;49.012;8.370;2024-03-29T11:25:53;13.50;95.50
20487;DHT22;10402;49.012;8.370;2024-03-29T11:28:25;13.50;95.50
20487;DHT22;10402;49.012;8.370;2024-03-29T11:30:52;13.50;95.50
20487;DHT22;10402;49.012;8.370;2024-03-29T11:33:56;13.60;95.60
20487;DHT22;10402;49.012;8.370;2024-03-29T11:36:23;13.70;95.70
20487;DHT22;10402;49.012;8.370;2024-03-29T11:38:51;13.70;95.70
20487;DHT22;10402;49.012;8.370;2024-03-29T11:43:44;13.80;95.80
20487;DHT22;10402;49.012;8.370;2024-03-29T11:46:12;13.80;95.80
20487;DHT22;10402;49.012;8.370;2024-03-29T11:48:38;13.90;95.80
20487;DHT22;10402;49.012;8.370;2024-03-29T11:51:09;14.00;95.90
20487;DHT22;10402;49.012;8.370;2024-03-29T11:53:36;14.00;95.80
20487;DHT22;10402;49.012;8.370;2024-03-29T11:56:03;14.00;95.90
20487;DHT22;10402;49.012;8.370;2024-03-29T11:58:31;14.00;95.90
20487;DHT22;10402;49.012;8.370;2024-03-29T12:00:58;14.10;95.90
20487;DHT22;10402;49.012;8.370;2024-03-29T12:03:25;14.10;95.90
20487;DHT22;10402;49.012;8.370;2024-03-29T12:05:52;14.20;95.90
20487;DHT22;10402;49.012;8.370;2024-03-29T12:08:24;14.20;95.90
20487;DHT22;10402;49.012;8.370;2024-03-29T12:10:50;14.20;95.90
20487;DHT22;10402;49.012;8.370;2024-03-29T12:13:17;14.30;95.90
20487;DHT22;10402;49.012;8.370;2024-03-29T12:15:42;14.30;95.90
20487;DHT22;10402;49.012;8.370;2024-03-29T12:18:08;14.40;96.00
20487;DHT22;10402;49.012;8.370;2024-03-29T12:20:35;14.30;95.80
20487;DHT22;10402;49.012;8.370;2024-03-29T12:23:03;14.40;95.90
20487;DHT22;10402;49.012;8.370;2024-03-29T12:25:30;14.30;95.90
20487;DHT22;10402;49.012;8.370;2024-03-29T12:27:57;14.30;95.90
20487;DHT22;10402;49.012;8.370;2024-03-29T12:30:23;14.30;95.90
20487;DHT22;10402;49.012;8.370;2024-03-29T12:32:48;14.40;95.90
20487;DHT22;10402;49.012;8.370;2024-03-29T12:35:15;14.40;95.90
20487;DHT22;10402;49.012;8.370;2024-03-29T12:37:48;14.40;95.90
20487;DHT22;10402;49.012;8.370;2024-03-29T12:40:16;14.40;95.90
20487;DHT22;10402;49.012;8.370;2024-03-29T12:42:44;14.50;96.00
20487;DHT22;10402;49.012;8.370;2024-03-29T12:45:10;14.50;96.00
20487;DHT22;10402;49.012;8.370;2024-03-29T12:47:36;14.50;95.90
20487;DHT22;10402;49.012;8.370;2024-03-29T12:50:03;14.40;95.90
20487;DHT22;10402;49.012;8.370;2024-03-29T12:52:39;14.40;95.90
20487;DHT22;10402;49.012;8.370;2024-03-29T12:55:06;14.40;95.90
20487;DHT22;10402;49.012;8.370;2024-03-29T12:57:33;14.40;95.90
20487;DHT22;10402;49.012;8.370;2024-03-29T12:59:59;14.40;95.90
20487;DHT22;10402;49.012;8.370;2024-03-29T13:02:25;14.40;96.00
20487;DHT22;10402;49.012;8.370;2024-03-29T13:04:50;14.40;96.10
20487;DHT22;10402;49.012;8.370;2024-03-29T13:07:16;14.30;96.10
20487;DHT22;10402;49.012;8.370;2024-03-29T13:09:42;14.30;96.20
20487;DHT22;10402;49.012;8.370;2024-03-29T13:12:07;14.30;96.30
20487;DHT22;10402;49.012;8.370;2024-03-29T13:14:33;14.30;96.40
20487;DHT22;10402;49.012;8.370;2024-03-29T13:16:59;14.30;96.50
20487;DHT22;10402;49.012;8.370;2024-03-29T13:19:25;14.30;96.60
20487;DHT22;10402;49.012;8.370;2024-03-29T13:21:50;14.20;97.00
20487;DHT22;10402;49.012;8.370;2024-03-29T13:24:16;14.20;97.10
20487;DHT22;10402;49.012;8.370;2024-03-29T13:26:41;14.10;97.30
20487;DHT22;10402;49.012;8.370;2024-03-29T13:29:07;14.10;97.50
20487;DHT22;10402;49.012;8.370;2024-03-29T13:31:32;14.10;97.50
20487;DHT22;10402;49.012;8.370;2024-03-29T13:33:58;14.10;97.70
20487;DHT22;10402;49.012;8.370;2024-03-29T13:36:38;14.00;97.90
20487;DHT22;10402;49.012;8.370;2024-03-29T13:39:03;14.00;98.00
20487;DHT22;10402;49.012;8.370;2024-03-29T13:41:30;14.00;98.00
20487;DHT22;10402;49.012;8.370;2024-03-29T13:43:55;14.00;98.10
20487;DHT22;10402;49.012;8.370;2024-03-29T13:46:21;14.00;98.20
20487;DHT22;10402;49.012;8.370;2024-03-29T13:48:47;14.00;98.20
20487;DHT22;10402;49.012;8.370;2024-03-29T13:51:12;14.00;98.20
20487;DHT22;10402;49.012;8.370;2024-03-29T13:53:39;14.00;98.10
20487;DHT22;10402;49.012;8.370;2024-03-29T13:56:04;14.00;98.10
20487;DHT22;10402;49.012;8.370;2024-03-29T13:58:31;14.00;98.10
20487;DHT22;10402;49.012;8.370;2024-03-29T14:00:56;13.90;98.00
20487;DHT22;10402;49.012;8.370;2024-03-29T14:03:25;14.00;98.00
20487;DHT22;10402;49.012;8.370;2024-03-29T14:05:51;13.90;97.90
20487;DHT22;10402;49.012;8.370;2024-03-29T14:08:17;14.00;98.10
20487;DHT22;10402;49.012;8.370;2024-03-29T14:10:42;14.00;98.10
20487;DHT22;10402;49.012;8.370;2024-03-29T14:13:08;14.00;97.90
20487;DHT22;10402;49.012;8.370;2024-03-29T14:15:34;14.00;98.00
20487;DHT22;10402;49.012;8.370;2024-03-29T14:18:00;14.00;98.00
20487;DHT22;10402;49.012;8.370;2024-03-29T14:20:26;14.00;98.10
20487;DHT22;10402;49.012;8.370;2024-03-29T14:22:51;14.00;98.00
20487;DHT22;10402;49.012;8.370;2024-03-29T14:25:21;14.10;98.10
20487;DHT22;10402;49.012;8.370;2024-03-29T14:27:46;14.10;97.90
20487;DHT22;10402;49.012;8.370;2024-03-29T14:30:20;14.00;97.80
20487;DHT22;10402;49.012;8.370;2024-03-29T14:32:47;14.00;98.10
20487;DHT22;10402;49.012;8.370;2024-03-29T14:35:13;14.00;97.90
20487;DHT22;10402;49.012;8.370;2024-03-29T14:37:40;14.00;98.00
20487;DHT22;10402;49.012;8.370;2024-03-29T14:40:06;14.00;98.10
20487;DHT22;10402;49.012;8.370;2024-03-29T14:42:31;14.00;98.10
20487;DHT22;10402;49.012;8.370;2024-03-29T14:44:57;14.00;98.10
20487;DHT22;10402;49.012;8.370;2024-03-29T14:47:23;14.00;98.20
20487;DHT22;10402;49.012;8.370;2024-03-29T14:49:49;14.00;98.30
20487;DHT22;10402;49.012;8.370;2024-03-29T14:52:14;14.10;98.40
20487;DHT22;10402;49.012;8.370;2024-03-29T14:54:40;14.10;98.30
20487;DHT22;10402;49.012;8.370;2024-03-29T14:57:05;14.20;98.20
20487;DHT22;10402;49.012;8.370;2024-03-29T14:59:31;14.20;98.10
20487;DHT22;10402;49.012;8.370;2024-03-29T15:01:58;14.20;98.10
20487;DHT22;10402;49.012;8.370;2024-03-29T15:04:23;14.30;98.20
20487;DHT22;10402;49.012;8.370;2024-03-29T15:06:49;14.30;98.20
20487;DHT22;10402;49.012;8.370;2024-03-29T15:09:15;14.30;98.20
20487;DHT22;10402;49.012;8.370;2024-03-29T15:11:41;14.30;98.20
20487;DHT22;10402;49.012;8.370;2024-03-29T15:14:06;14.30;98.20
20487;DHT22;10402;49.012;8.370;2024-03-29T15:16:35;14.40;98.60
20487;DHT22;10402;49.012;8.370;2024-03-29T15:19:01;14.40;98.40
20487;DHT22;10402;49.012;8.370;2024-03-29T15:21:27;14.40;98.40
20487;DHT22;10402;49.012;8.370;2024-03-29T15:23:54;14.40;98.30
20487;DHT22;10402;49.012;8.370;2024-03-29T15:26:20;14.40;98.30
20487;DHT22;10402;49.012;8.370;2024-03-29T15:28:46;14.40;98.40